Time;durP1;ratioP1;P1;durP2;ratioP2;P2;SDS_P1;SDS_P2;PMS_P1;PMS_P2;Temp;Humidity;BMP_temperature;BMP_pressure;BME280_temperature;BME280_humidity;BME280_pressure;Samples;Min_cycle;Max_cycle;Signal;HPM_P1;HPM_P2
2021/07/24 00:01:04;;;;;;;13.15;6.35;;;17.20;81.90;;;;;;6184954;23;20025;-74
2021/07/24 00:03:36;;;;;;;12.13;6.70;;;17.20;81.90;;;;;;6188055;23;20044;-73
2021/07/24 00:06:03;;;;;;;11.35;6.38;;;17.20;81.80;;;;;;6187509;23;20031;-75
2021/07/24 00:08:37;;;;;;;12.07;6.30;;;17.20;81.70;;;;;;6187166;23;20043;-76
2021/07/24 00:11:06;;;;;;;11.73;5.82;;;17.20;81.80;;;;;;6189185;23;20033;-76
2021/07/24 00:13:41;;;;;;;11.57;6.10;;;17.10;82.00;;;;;;6187436;23;20048;-76
2021/07/24 00:16:09;;;;;;;16.52;6.43;;;17.10;82.00;;;;;;6213050;23;20212;-75
2021/07/24 00:18:36;;;;;;;12.10;6.68;;;17.10;81.80;;;;;;6186594;23;20204;-75
2021/07/24 00:21:04;;;;;;;12.05;6.32;;;17.10;82.10;;;;;;6188757;23;20372;-75
2021/07/24 00:23:32;;;;;;;11.15;5.97;;;17.00;82.10;;;;;;6190021;23;20028;-76
2021/07/24 00:26:00;;;;;;;13.65;6.85;;;17.00;82.30;;;;;;6192002;23;20052;-75
2021/07/24 00:28:29;;;;;;;;;;;17.00;82.30;;;;;;6194081;23;20028;-75
2021/07/24 00:30:57;;;;;;;12.88;6.72;;;17.00;82.30;;;;;;6191483;23;19930;-75
2021/07/24 00:33:36;;;;;;;12.55;6.40;;;16.90;82.50;;;;;;6189747;23;20346;-75
2021/07/24 00:36:06;;;;;;;13.30;6.13;;;16.90;82.20;;;;;;6190010;23;20032;-75
2021/07/24 00:38:33;;;;;;;12.43;6.40;;;16.90;82.20;;;;;;6187548;23;20032;-75
2021/07/24 00:41:04;;;;;;;12.38;6.50;;;16.80;82.40;;;;;;6187743;23;20032;-75
2021/07/24 00:43:37;;;;;;;14.77;7.38;;;16.80;82.30;;;;;;6187269;23;20024;-75
2021/07/24 00:46:06;;;;;;;15.57;7.45;;;16.90;82.30;;;;;;6187363;23;20076;-75
2021/07/24 00:48:38;;;;;;;13.48;6.95;;;16.80;82.60;;;;;;6188125;23;20032;-75
2021/07/24 00:51:26;;;;;;;13.30;6.72;;;16.80;82.60;;;;;;6215616;23;20029;-75
2021/07/24 00:53:54;;;;;;;15.75;6.32;;;16.80;82.60;;;;;;6191972;23;20024;-75
2021/07/24 00:56:24;;;;;;;13.32;6.68;;;16.70;82.70;;;;;;6187327;23;20056;-74
2021/07/24 00:58:51;;;;;;;12.93;6.00;;;16.70;82.80;;;;;;6190396;23;20223;-75
2021/07/24 01:01:19;;;;;;;11.45;6.68;;;16.70;82.90;;;;;;6186659;23;20029;-74
2021/07/24 01:03:47;;;;;;;12.63;5.82;;;16.70;83.00;;;;;;6192753;23;20025;-75
2021/07/24 01:06:19;;;;;;;15.23;6.70;;;16.70;82.90;;;;;;6187929;23;20076;-74
2021/07/24 01:08:52;;;;;;;13.95;7.22;;;16.70;82.90;;;;;;6189784;23;20043;-75
2021/07/24 01:11:22;;;;;;;13.45;6.78;;;16.60;83.00;;;;;;6214388;23;20036;-74
2021/07/24 01:13:52;;;;;;;14.95;6.72;;;16.60;83.10;;;;;;6190764;23;20024;-75
2021/07/24 01:16:22;;;;;;;12.02;6.38;;;16.60;83.30;;;;;;6190492;23;20021;-75
2021/07/24 01:18:52;;;;;;;15.55;7.78;;;16.60;83.20;;;;;;6186252;23;20044;-75
2021/07/24 01:21:36;;;;;;;13.15;6.35;;;16.60;83.30;;;;;;6188090;23;20087;-75
2021/07/24 01:24:04;;;;;;;13.07;6.32;;;16.50;83.40;;;;;;6186659;23;20265;-75
2021/07/24 01:26:35;;;;;;;15.55;6.25;;;16.50;83.30;;;;;;6189334;23;20017;-75
2021/07/24 01:29:07;;;;;;;15.25;7.35;;;16.40;83.40;;;;;;6211460;23;20275;-74
2021/07/24 01:31:35;;;;;;;12.30;6.32;;;16.40;83.50;;;;;;6210784;23;20049;-74
2021/07/24 01:34:03;;;;;;;13.45;6.25;;;16.40;83.60;;;;;;6183151;23;20081;-74
2021/07/24 01:36:31;;;;;;;13.30;6.53;;;16.40;83.60;;;;;;6186264;23;20029;-75
2021/07/24 01:39:00;;;;;;;13.20;6.82;;;16.30;83.60;;;;;;6213473;23;20284;-75
2021/07/24 01:41:30;;;;;;;13.27;7.10;;;16.40;83.60;;;;;;6187892;23;20031;-74
2021/07/24 01:43:58;;;;;;;14.80;6.47;;;16.30;83.80;;;;;;6208130;23;20254;-75
2021/07/24 01:46:26;;;;;;;14.15;6.65;;;16.20;83.90;;;;;;6188343;23;20221;-74
2021/07/24 01:49:14;;;;;;;14.55;6.85;;;16.10;83.40;;;;;;6185816;23;20031;-74
2021/07/24 01:54:44;;;;;;;11.30;5.60;;;16.00;83.70;;;;;;6188789;23;20025;-74
2021/07/24 01:57:14;;;;;;;15.27;6.38;;;15.90;83.80;;;;;;6187701;23;20021;-75
2021/07/24 01:59:55;;;;;;;14.00;6.60;;;15.90;83.90;;;;;;6188475;23;20025;-74
2021/07/24 02:02:25;;;;;;;12.35;6.22;;;15.90;84.00;;;;;;6183924;23;20029;-74
2021/07/24 02:04:59;;;;;;;11.63;6.38;;;15.90;84.10;;;;;;6187601;23;20264;-74
2021/07/24 02:07:30;;;;;;;14.00;6.35;;;15.80;84.30;;;;;;6185873;23;20040;-74
2021/07/24 02:10:01;;;;;;;14.82;6.72;;;15.80;84.30;;;;;;6188641;23;20025;-74
2021/07/24 02:12:46;;;;;;;12.98;6.57;;;15.90;84.40;;;;;;6188568;23;20220;-74
2021/07/24 02:15:13;;;;;;;11.25;6.90;;;15.90;84.20;;;;;;6188069;23;20209;-74
2021/07/24 02:17:45;;;;;;;12.43;6.70;;;15.90;84.10;;;;;;6189507;23;20308;-74
2021/07/24 02:20:15;;;;;;;12.20;6.50;;;15.90;84.40;;;;;;6190420;23;20029;-74
2021/07/24 02:22:43;;;;;;;12.60;6.47;;;15.90;84.50;;;;;;6191916;23;20040;-75
2021/07/24 02:25:12;;;;;;;11.65;6.57;;;15.90;84.40;;;;;;6187976;23;20071;-75
2021/07/24 02:27:45;;;;;;;11.57;6.70;;;16.00;84.30;;;;;;6189634;23;20031;-75
2021/07/24 02:30:12;;;;;;;13.02;7.15;;;15.90;84.20;;;;;;6189407;23;20429;-75
2021/07/24 02:32:40;;;;;;;14.80;6.35;;;15.90;84.30;;;;;;6213617;23;20044;-75
2021/07/24 02:35:09;;;;;;;17.65;7.20;;;15.90;84.40;;;;;;6191053;23;20017;-75
2021/07/24 02:37:45;;;;;;;14.43;6.15;;;15.90;84.40;;;;;;6215734;23;20017;-75
2021/07/24 02:40:16;;;;;;;11.27;6.22;;;15.80;84.50;;;;;;6187278;23;20088;-75
2021/07/24 02:42:57;;;;;;;13.50;6.72;;;15.80;84.40;;;;;;6213363;23;20029;-75
2021/07/24 02:45:25;;;;;;;12.57;6.22;;;15.80;84.50;;;;;;6210887;23;20016;-74
2021/07/24 02:47:53;;;;;;;12.55;6.97;;;15.70;84.70;;;;;;6187527;23;20020;-74
2021/07/24 02:50:20;;;;;;;12.35;6.85;;;15.70;84.90;;;;;;6187440;23;20084;-74
2021/07/24 02:52:48;;;;;;;13.25;7.10;;;15.70;85.00;;;;;;6211192;23;20087;-75
2021/07/24 02:55:17;;;;;;;12.60;6.35;;;15.70;85.20;;;;;;6212485;23;20218;-75
2021/07/24 02:57:45;;;;;;;19.73;7.30;;;15.60;85.30;;;;;;6185121;23;20021;-74
2021/07/24 03:00:13;;;;;;;12.95;6.75;;;15.60;85.40;;;;;;6183029;23;20067;-75
2021/07/24 03:02:40;;;;;;;13.63;6.78;;;15.60;85.50;;;;;;6189126;23;20017;-74
2021/07/24 03:05:08;;;;;;;12.75;6.95;;;15.60;85.70;;;;;;6187341;23;20315;-74
2021/07/24 03:07:35;;;;;;;14.20;7.15;;;15.60;85.70;;;;;;6188949;23;20013;-74
2021/07/24 03:10:03;;;;;;;13.68;6.90;;;15.50;85.60;;;;;;6186900;23;20051;-74
2021/07/24 03:12:38;;;;;;;13.35;6.43;;;15.40;86.30;;;;;;6210539;23;20021;-74
2021/07/24 03:15:06;;;;;;;15.80;6.95;;;15.50;85.60;;;;;;6187559;23;20025;-75
2021/07/24 03:17:33;;;;;;;12.75;6.82;;;15.50;85.60;;;;;;6187913;23;20021;-75
2021/07/24 03:20:02;;;;;;;14.70;7.72;;;15.50;85.80;;;;;;6185292;23;20055;-75
2021/07/24 03:22:36;;;;;;;13.68;6.68;;;15.60;85.70;;;;;;6187617;23;20025;-75
2021/07/24 03:25:03;;;;;;;14.45;6.93;;;15.60;85.70;;;;;;6182927;23;20047;-75
2021/07/24 03:27:30;;;;;;;15.70;7.40;;;15.50;85.60;;;;;;6181279;23;20348;-74
2021/07/24 03:29:59;;;;;;;13.00;5.82;;;15.60;85.70;;;;;;6185156;23;20031;-74
2021/07/24 03:32:26;;;;;;;12.75;7.22;;;15.60;85.40;;;;;;6184482;23;20041;-74
2021/07/24 03:34:54;;;;;;;13.65;6.95;;;15.60;85.20;;;;;;6186946;23;20032;-75
2021/07/24 03:37:22;;;;;;;11.70;6.72;;;15.60;85.20;;;;;;6190031;23;20025;-74
2021/07/24 03:39:50;;;;;;;13.30;7.00;;;15.70;84.90;;;;;;6212381;23;20029;-74
2021/07/24 03:42:18;;;;;;;15.02;7.60;;;15.70;85.00;;;;;;6187539;23;20045;-75
2021/07/24 03:44:45;;;;;;;13.23;7.10;;;15.70;85.00;;;;;;6190112;23;20045;-74
2021/07/24 03:47:13;;;;;;;13.02;6.82;;;15.70;84.80;;;;;;6188363;23;20269;-74
2021/07/24 03:49:40;;;;;;;14.15;7.00;;;15.70;84.80;;;;;;6186220;23;20028;-75
2021/07/24 03:52:08;;;;;;;18.27;7.68;;;15.70;84.60;;;;;;6189209;23;20025;-74
2021/07/24 03:54:35;;;;;;;14.27;8.13;;;15.70;84.70;;;;;;6189878;23;20017;-74
2021/07/24 03:57:02;;;;;;;17.15;8.65;;;15.60;84.90;;;;;;6188542;23;20032;-74
2021/07/24 03:59:29;;;;;;;14.75;7.90;;;15.60;85.10;;;;;;6216683;23;20085;-75
2021/07/24 04:01:58;;;;;;;14.82;7.55;;;15.50;85.20;;;;;;6181138;23;20029;-75
2021/07/24 04:04:27;;;;;;;14.57;7.00;;;15.50;85.20;;;;;;6192126;23;20009;-75
2021/07/24 04:06:55;;;;;;;17.13;7.10;;;15.60;85.30;;;;;;6192871;23;20017;-75
2021/07/24 04:09:22;;;;;;;18.17;7.53;;;15.60;85.20;;;;;;6189956;23;20264;-75
2021/07/24 04:11:50;;;;;;;13.20;6.57;;;15.50;85.30;;;;;;6188407;23;20321;-75
2021/07/24 04:14:20;;;;;;;12.82;7.30;;;15.60;85.40;;;;;;6189728;23;20440;-74
2021/07/24 04:16:47;;;;;;;13.20;6.88;;;15.70;85.20;;;;;;6191407;23;20064;-75
2021/07/24 04:19:15;;;;;;;14.88;7.38;;;15.70;85.20;;;;;;6187386;23;20193;-74
2021/07/24 04:21:43;;;;;;;14.27;6.63;;;15.70;85.20;;;;;;6188522;23;20055;-75
2021/07/24 04:24:10;;;;;;;15.00;6.97;;;15.70;85.20;;;;;;6187233;23;20367;-75
2021/07/24 04:26:37;;;;;;;14.93;7.07;;;15.90;84.80;;;;;;6213246;23;20045;-74
2021/07/24 04:29:09;;;;;;;13.85;7.13;;;15.90;84.90;;;;;;6189297;23;20028;-74
2021/07/24 04:31:48;;;;;;;13.35;7.35;;;15.90;84.80;;;;;;4910761;23;10001952;-75
2021/07/24 04:34:16;;;;;;;15.10;7.03;;;16.00;84.70;;;;;;2143102;23;10001491;-74
2021/07/24 04:36:45;;;;;;;16.58;7.57;;;16.00;84.50;;;;;;6220074;23;20020;-74
2021/07/24 04:39:12;;;;;;;14.45;6.90;;;16.00;84.50;;;;;;6221110;23;20020;-75
2021/07/24 04:41:39;;;;;;;13.07;6.80;;;16.00;84.40;;;;;;6218782;23;20040;-75
2021/07/24 04:44:06;;;;;;;11.98;6.40;;;16.10;84.40;;;;;;6218465;23;20331;-74
2021/07/24 04:46:35;;;;;;;13.90;6.68;;;16.10;84.10;;;;;;6216474;23;20430;-74
2021/07/24 04:49:02;;;;;;;13.68;7.40;;;16.20;83.90;;;;;;6218881;23;20027;-75
2021/07/24 04:51:31;;;;;;;12.57;6.43;;;16.20;83.50;;;;;;6218874;23;20288;-75
2021/07/24 04:54:00;;;;;;;12.90;6.80;;;16.30;83.40;;;;;;6218731;23;20264;-75
2021/07/24 04:56:27;;;;;;;15.13;6.82;;;16.30;83.30;;;;;;6218962;23;20008;-74
2021/07/24 04:58:55;;;;;;;15.50;7.25;;;16.40;82.80;;;;;;6214465;23;20328;-74
2021/07/24 05:01:22;;;;;;;16.95;6.70;;;16.50;82.80;;;;;;6211884;23;20044;-75
2021/07/24 05:03:50;;;;;;;12.05;7.03;;;16.50;82.80;;;;;;6215495;23;20017;-74
2021/07/24 05:06:17;;;;;;;13.73;7.05;;;16.70;82.80;;;;;;6216346;23;20042;-74
2021/07/24 05:08:45;;;;;;;12.45;6.90;;;16.90;82.40;;;;;;6215772;23;20013;-75
2021/07/24 05:11:13;;;;;;;14.32;7.07;;;17.20;82.10;;;;;;6217060;23;20056;-75
2021/07/24 05:13:41;;;;;;;14.52;7.40;;;17.40;81.50;;;;;;6218737;23;20270;-75
2021/07/24 05:16:08;;;;;;;13.20;7.13;;;17.50;81.00;;;;;;6217536;23;20024;-74
2021/07/24 05:18:35;;;;;;;11.50;6.80;;;17.70;80.30;;;;;;6216012;23;20354;-75
2021/07/24 05:21:02;;;;;;;13.13;6.85;;;17.90;79.90;;;;;;6216304;23;20025;-74
2021/07/24 05:23:29;;;;;;;15.48;8.55;;;18.10;79.60;;;;;;6217554;23;20025;-74
2021/07/24 05:25:57;;;;;;;15.18;7.47;;;18.20;79.00;;;;;;6217503;23;20021;-74
2021/07/24 05:28:25;;;;;;;17.42;7.53;;;18.40;78.60;;;;;;6217459;23;20274;-74
2021/07/24 05:30:52;;;;;;;12.98;7.38;;;18.60;78.30;;;;;;6217849;23;20024;-74
2021/07/24 05:33:20;;;;;;;13.52;8.10;;;18.70;77.70;;;;;;6213752;23;20029;-74
2021/07/24 05:35:48;;;;;;;12.75;7.40;;;18.90;77.50;;;;;;6215073;23;20025;-74
2021/07/24 05:38:15;;;;;;;13.13;7.10;;;19.10;76.70;;;;;;6216259;23;20017;-75
2021/07/24 05:40:42;;;;;;;13.15;7.43;;;19.20;76.30;;;;;;6216197;23;20035;-75
2021/07/24 05:43:09;;;;;;;11.38;6.97;;;19.20;76.20;;;;;;6216670;23;20032;-75
2021/07/24 05:45:38;;;;;;;14.68;6.95;;;19.20;76.30;;;;;;6215564;23;20035;-75
2021/07/24 05:48:05;;;;;;;14.00;6.60;;;19.20;76.40;;;;;;6216270;23;20031;-74
2021/07/24 05:50:32;;;;;;;11.95;6.40;;;19.50;76.00;;;;;;6220483;23;20023;-75
2021/07/24 05:52:59;;;;;;;12.57;6.75;;;19.50;75.90;;;;;;6218391;23;20071;-75
2021/07/24 05:55:26;;;;;;;14.38;7.05;;;19.60;75.80;;;;;;6216697;23;20284;-75
2021/07/24 05:57:53;;;;;;;14.02;7.25;;;19.60;75.90;;;;;;6219580;23;20031;-75
2021/07/24 06:00:21;;;;;;;11.70;6.78;;;19.60;75.30;;;;;;6215033;23;20201;-75
2021/07/24 06:02:49;;;;;;;12.63;7.20;;;19.60;75.30;;;;;;6218524;23;20354;-75
2021/07/24 06:05:17;;;;;;;17.35;7.20;;;19.60;75.10;;;;;;6220558;23;20077;-75
2021/07/24 06:07:46;;;;;;;13.30;7.70;;;19.60;75.20;;;;;;6219179;23;20429;-74
2021/07/24 06:10:13;;;;;;;13.18;6.80;;;19.60;75.10;;;;;;6218015;23;20020;-75
2021/07/24 06:12:40;;;;;;;10.95;6.35;;;19.60;75.00;;;;;;6217929;23;20027;-74
2021/07/24 06:15:08;;;;;;;16.70;7.20;;;19.60;74.90;;;;;;6219460;23;20016;-75
2021/07/24 06:17:35;;;;;;;11.93;7.05;;;19.60;74.90;;;;;;6218968;23;20399;-75
2021/07/24 06:20:04;;;;;;;16.33;6.97;;;19.60;75.20;;;;;;6214816;23;20036;-75
2021/07/24 06:22:31;;;;;;;11.73;7.03;;;19.70;75.00;;;;;;6217426;23;20039;-75
2021/07/24 06:24:58;;;;;;;17.83;7.68;;;19.90;74.60;;;;;;6218686;23;20031;-75
2021/07/24 06:27:26;;;;;;;10.93;6.38;;;20.00;74.20;;;;;;6216068;23;20017;-75
2021/07/24 06:29:53;;;;;;;13.43;7.00;;;20.10;74.00;;;;;;6216326;23;20013;-74
2021/07/24 06:32:21;;;;;;;13.73;6.40;;;20.30;73.50;;;;;;6215417;23;20189;-75
2021/07/24 06:34:48;;;;;;;14.85;7.10;;;20.30;73.50;;;;;;6216606;23;20047;-75
2021/07/24 06:37:17;;;;;;;16.48;7.88;;;20.40;73.30;;;;;;6217760;23;20047;-75
2021/07/24 06:39:44;;;;;;;16.90;7.38;;;20.60;72.70;;;;;;6218765;23;20028;-75
2021/07/24 06:42:11;;;;;;;12.48;7.22;;;20.80;72.50;;;;;;6215680;23;20071;-75
2021/07/24 06:44:38;;;;;;;11.43;6.63;;;20.90;72.10;;;;;;6217556;23;20219;-75
2021/07/24 06:47:06;;;;;;;13.68;7.22;;;21.00;71.20;;;;;;6217896;23;20039;-74
2021/07/24 06:49:34;;;;;;;16.27;7.35;;;21.10;72.00;;;;;;6215227;23;20036;-75
2021/07/24 06:52:01;;;;;;;14.30;6.35;;;21.20;71.20;;;;;;6213588;23;20044;-75
2021/07/24 06:54:32;;;;;;;12.23;7.30;;;21.30;71.10;;;;;;6216702;23;20033;-75
2021/07/24 06:56:59;;;;;;;12.32;6.97;;;21.60;70.10;;;;;;6216992;23;20221;-75
2021/07/24 06:59:26;;;;;;;12.25;7.07;;;21.80;69.80;;;;;;6215483;23;20012;-75
2021/07/24 07:01:53;;;;;;;11.70;6.82;;;22.10;69.10;;;;;;6208650;23;20223;-74
2021/07/24 07:04:20;;;;;;;18.67;8.30;;;22.30;68.20;;;;;;6215752;23;20024;-75
2021/07/24 07:06:47;;;;;;;13.70;7.47;;;22.60;68.00;;;;;;6213173;23;20095;-75
2021/07/24 07:09:15;;;;;;;12.18;7.60;;;22.70;67.20;;;;;;6215057;23;20012;-76
2021/07/24 07:11:43;;;;;;;14.73;7.63;;;22.80;66.70;;;;;;6211882;23;20017;-76
2021/07/24 07:14:11;;;;;;;11.95;7.10;;;23.00;66.30;;;;;;6215438;23;20238;-76
2021/07/24 07:16:38;;;;;;;13.82;6.75;;;23.10;65.90;;;;;;6213859;23;20257;-75
2021/07/24 07:19:06;;;;;;;14.05;6.97;;;23.30;65.60;;;;;;6215256;23;20072;-76
2021/07/24 07:21:34;;;;;;;10.68;6.47;;;23.50;65.70;;;;;;6213839;23;20024;-75
2021/07/24 07:24:01;;;;;;;12.95;6.75;;;23.60;65.50;;;;;;6213442;23;20035;-76
2021/07/24 07:26:32;;;;;;;13.90;7.63;;;23.80;63.80;;;;;;6215161;23;20040;-76
2021/07/24 07:29:03;;;;;;;12.43;6.05;;;24.00;63.30;;;;;;6213636;23;20258;-76
2021/07/24 07:31:31;;;;;;;11.82;6.88;;;24.10;63.10;;;;;;6214909;23;20025;-76
2021/07/24 07:33:59;;;;;;;11.70;7.20;;;24.30;62.60;;;;;;6215759;23;20040;-76
2021/07/24 07:36:26;;;;;;;14.52;6.75;;;24.40;62.50;;;;;;6214257;23;20052;-76
2021/07/24 07:38:53;;;;;;;15.23;6.90;;;24.70;61.80;;;;;;6216398;23;20022;-76
2021/07/24 07:41:20;;;;;;;11.27;6.45;;;25.00;60.20;;;;;;6217460;23;20047;-76
2021/07/24 07:43:49;;;;;;;11.93;6.60;;;25.10;61.10;;;;;;6219504;23;20051;-76
2021/07/24 07:46:18;;;;;;;13.32;7.53;;;25.30;58.80;;;;;;6216361;23;20103;-76
2021/07/24 07:48:45;;;;;;;13.23;6.87;;;25.30;57.70;;;;;;6215419;23;20083;-76
2021/07/24 07:51:12;;;;;;;11.98;6.55;;;25.20;57.10;;;;;;6218440;23;20024;-75
2021/07/24 07:53:39;;;;;;;10.30;6.13;;;25.30;57.90;;;;;;6213798;23;20208;-75
2021/07/24 07:56:09;;;;;;;11.45;6.50;;;25.50;56.10;;;;;;6215314;23;20044;-75
2021/07/24 07:58:37;;;;;;;11.68;6.38;;;25.50;56.10;;;;;;6216771;23;20028;-75
2021/07/24 08:01:11;;;;;;;17.25;6.60;;;25.60;56.50;;;;;;6212408;23;20271;-75
2021/07/24 08:03:41;;;;;;;11.38;6.90;;;25.90;56.50;;;;;;6202641;23;20254;-75
2021/07/24 08:06:09;;;;;;;15.90;6.68;;;25.80;55.20;;;;;;6215661;23;20216;-75
2021/07/24 08:08:36;;;;;;;10.60;6.75;;;25.60;55.50;;;;;;6215908;23;20339;-75
2021/07/24 08:11:03;;;;;;;12.95;6.75;;;25.80;54.40;;;;;;6215225;23;20021;-75
2021/07/24 08:13:32;;;;;;;12.85;6.65;;;26.00;53.60;;;;;;6216824;23;20025;-75
2021/07/24 08:15:59;;;;;;;10.50;6.22;;;25.90;54.50;;;;;;6217843;23;20040;-75
2021/07/24 08:18:28;;;;;;;12.00;5.88;;;26.00;54.50;;;;;;6215596;23;20047;-73
2021/07/24 08:20:57;;;;;;;11.70;6.78;;;26.20;53.70;;;;;;6215838;23;20016;-75
2021/07/24 08:23:24;;;;;;;11.57;6.80;;;26.50;53.20;;;;;;6218121;23;20028;-75
2021/07/24 08:25:51;;;;;;;11.48;6.50;;;26.40;54.10;;;;;;6217656;23;20024;-75
2021/07/24 08:28:19;;;;;;;12.85;6.80;;;26.40;53.60;;;;;;6217360;23;20025;-75
2021/07/24 08:30:46;;;;;;;12.02;6.28;;;26.60;54.00;;;;;;6217714;23;20019;-73
2021/07/24 08:33:14;;;;;;;11.25;6.63;;;26.70;52.60;;;;;;6215681;23;20305;-76
2021/07/24 08:35:41;;;;;;;10.15;6.15;;;26.30;52.90;;;;;;6215874;23;20088;-73
2021/07/24 08:38:09;;;;;;;11.27;6.35;;;26.50;53.20;;;;;;6213058;23;20029;-73
2021/07/24 08:40:38;;;;;;;12.67;6.03;;;26.50;52.20;;;;;;6212304;23;20031;-73
2021/07/24 08:43:07;;;;;;;13.55;6.20;;;26.80;52.30;;;;;;6209562;23;20324;-74
2021/07/24 08:45:34;;;;;;;12.00;6.70;;;26.70;51.60;;;;;;6216378;23;20032;-73
2021/07/24 08:48:04;;;;;;;9.70;5.88;;;26.60;51.50;;;;;;6214321;23;20291;-75
2021/07/24 08:50:33;;;;;;;9.85;5.80;;;26.30;51.30;;;;;;6215042;23;20040;-76
2021/07/24 08:53:04;;;;;;;10.35;6.22;;;26.10;51.90;;;;;;6216222;23;20035;-75
2021/07/24 08:55:39;;;;;;;10.77;5.90;;;25.90;52.00;;;;;;6214913;23;20216;-75
2021/07/24 08:58:10;;;;;;;11.13;6.28;;;25.90;51.20;;;;;;6213882;23;20572;-75
2021/07/24 09:00:37;;;;;;;11.20;5.82;;;26.00;52.20;;;;;;6213409;23;20040;-73
2021/07/24 09:03:05;;;;;;;16.65;6.43;;;26.30;52.00;;;;;;6219272;23;20020;-73
2021/07/24 09:05:35;;;;;;;12.82;6.32;;;26.40;51.30;;;;;;6218272;23;20024;-73
2021/07/24 09:08:07;;;;;;;10.63;6.20;;;26.30;51.50;;;;;;6221245;23;20055;-73
2021/07/24 09:10:34;;;;;;;10.77;5.55;;;26.50;51.90;;;;;;6217201;23;20025;-73
2021/07/24 09:13:03;;;;;;;11.85;6.03;;;26.90;51.20;;;;;;6219577;23;20288;-73
2021/07/24 09:15:30;;;;;;;8.52;5.22;;;27.30;50.10;;;;;;6217830;23;20032;-73
2021/07/24 09:17:57;;;;;;;11.77;6.40;;;27.50;49.90;;;;;;6216627;23;20017;-73
2021/07/24 09:20:26;;;;;;;15.52;6.20;;;27.80;49.70;;;;;;6219589;23;20066;-73
2021/07/24 09:22:54;;;;;;;8.90;6.10;;;27.60;47.50;;;;;;6217108;23;20347;-73
2021/07/24 09:25:23;;;;;;;13.13;6.07;;;27.50;48.50;;;;;;6218230;23;20027;-73
2021/07/24 09:27:52;;;;;;;10.73;6.03;;;27.50;48.00;;;;;;6221239;23;20016;-74
2021/07/24 09:30:38;;;;;;;9.68;5.30;;;27.70;47.50;;;;;;6220848;23;20036;-73
2021/07/24 09:33:07;;;;;;;10.60;5.75;;;27.80;47.70;;;;;;6218925;23;20316;-74
2021/07/24 09:35:36;;;;;;;10.45;6.20;;;27.90;47.30;;;;;;6220391;23;20304;-73
2021/07/24 09:38:04;;;;;;;10.93;5.90;;;27.90;47.40;;;;;;6219965;23;20022;-73
2021/07/24 09:40:34;;;;;;;15.05;6.20;;;27.80;47.50;;;;;;6218756;23;20019;-74
2021/07/24 09:43:01;;;;;;;11.23;6.55;;;27.80;47.80;;;;;;6215884;23;20024;-73
2021/07/24 09:45:30;;;;;;;10.63;6.10;;;28.00;47.00;;;;;;6217702;23;20087;-74
2021/07/24 09:48:14;;;;;;;9.50;5.78;;;28.10;47.80;;;;;;6221284;23;20028;-73
2021/07/24 09:50:47;;;;;;;10.98;6.30;;;28.00;47.50;;;;;;6217569;23;20018;-74
2021/07/24 09:53:14;;;;;;;15.45;6.15;;;27.80;47.20;;;;;;6218407;23;20025;-73
2021/07/24 09:55:48;;;;;;;10.38;5.70;;;27.60;47.90;;;;;;6219303;23;20220;-73
2021/07/24 09:58:21;;;;;;;11.32;5.55;;;27.30;48.90;;;;;;6217515;23;20028;-74
2021/07/24 10:00:48;;;;;;;14.80;6.43;;;27.40;49.50;;;;;;6214615;23;20024;-74
2021/07/24 10:03:28;;;;;;;9.20;5.88;;;27.20;50.00;;;;;;6222527;23;20373;-73
2021/07/24 10:05:56;;;;;;;11.82;6.07;;;27.60;49.00;;;;;;6222020;23;20331;-74
2021/07/24 10:08:26;;;;;;;10.60;6.20;;;27.70;49.80;;;;;;6218968;23;20032;-74
2021/07/24 10:10:53;;;;;;;11.90;5.95;;;27.60;50.00;;;;;;6220514;23;20067;-75
2021/07/24 10:13:21;;;;;;;9.98;5.60;;;27.40;50.40;;;;;;6220336;23;20107;-74
2021/07/24 10:15:48;;;;;;;9.80;5.45;;;27.30;50.80;;;;;;6218960;23;20028;-73
2021/07/24 10:18:17;;;;;;;11.52;5.60;;;27.40;50.70;;;;;;6218143;23;20024;-74
2021/07/24 10:20:46;;;;;;;11.43;5.55;;;27.40;51.40;;;;;;6219659;23;20047;-73
2021/07/24 10:23:21;;;;;;;13.77;5.90;;;27.10;51.10;;;;;;6219155;23;20071;-73
2021/07/24 10:25:58;;;;;;;9.85;5.70;;;26.90;52.10;;;;;;6214793;23;20141;-73
2021/07/24 10:28:30;;;;;;;11.45;6.05;;;26.80;52.70;;;;;;6217706;23;20024;-73
2021/07/24 10:31:05;;;;;;;10.85;5.65;;;26.80;53.10;;;;;;6218198;23;20080;-73
2021/07/24 10:33:34;;;;;;;11.18;6.20;;;26.60;52.60;;;;;;6218151;23;20024;-73
2021/07/24 10:36:12;;;;;;;13.88;7.50;;;26.60;53.60;;;;;;6216352;23;20020;-73
2021/07/24 10:38:56;;;;;;;14.90;6.53;;;26.30;56.30;;;;;;6218011;23;20221;-73
2021/07/24 10:41:40;;;;;;;12.23;6.15;;;25.90;57.30;;;;;;6216752;23;20405;-73
2021/07/24 10:44:09;;;;;;;11.20;5.95;;;25.70;56.50;;;;;;6218646;23;20074;-73
2021/07/24 10:47:14;;;;;;;11.05;6.22;;;25.60;58.50;;;;;;6217507;23;20328;-73
2021/07/24 10:50:03;;;;;;;11.70;7.00;;;25.40;59.10;;;;;;6216445;23;20084;-74
2021/07/24 10:53:11;;;;;;;12.70;6.72;;;25.10;61.60;;;;;;6219573;23;20069;-74
2021/07/24 10:55:47;;;;;;;11.50;7.20;;;25.00;62.70;;;;;;6217284;23;20367;-73
2021/07/24 10:58:18;;;;;;;10.77;6.93;;;24.80;63.80;;;;;;6218364;23;20017;-74
2021/07/24 11:00:52;;;;;;;13.68;7.07;;;24.90;64.70;;;;;;6210751;23;20021;-74
2021/07/24 11:03:41;;;;;;;12.48;6.93;;;24.70;63.50;;;;;;6219330;23;20031;-75
2021/07/24 11:06:38;;;;;;;;;;;24.70;62.60;;;;;;6211482;23;20031;-74
2021/07/24 11:09:18;;;;;;;13.48;7.05;;;24.80;63.80;;;;;;6185158;23;19920;-75
2021/07/24 11:11:45;;;;;;;;;;;24.80;63.40;;;;;;6214095;23;20028;-73
2021/07/24 11:14:57;;;;;;;11.55;6.85;;;25.00;63.30;;;;;;6219228;23;19971;-73
2021/07/24 11:17:26;;;;;;;13.50;7.22;;;25.10;62.50;;;;;;6210062;23;20383;-75
2021/07/24 11:20:35;;;;;;;12.65;7.20;;;25.10;61.80;;;;;;6219522;23;20292;-75
2021/07/24 11:23:07;;;;;;;15.52;7.45;;;25.30;61.00;;;;;;6221131;23;20025;-74
2021/07/24 11:25:40;;;;;;;15.05;7.50;;;25.60;60.50;;;;;;6220877;23;20016;-75
2021/07/24 11:28:08;;;;;;;13.07;7.15;;;25.60;60.70;;;;;;6219893;23;20359;-74
2021/07/24 11:30:36;;;;;;;11.27;7.13;;;25.80;59.90;;;;;;6220318;23;20061;-74
2021/07/24 11:33:05;;;;;;;13.20;6.95;;;25.90;59.80;;;;;;6220154;23;20016;-73
2021/07/24 11:35:39;;;;;;;15.25;7.82;;;26.40;58.20;;;;;;6217599;23;20346;-75
2021/07/24 11:38:21;;;;;;;14.48;6.80;;;27.40;55.10;;;;;;6220109;23;20017;-72
2021/07/24 11:41:06;;;;;;;15.27;7.18;;;28.00;52.30;;;;;;6221468;23;20304;-74
2021/07/24 11:43:34;;;;;;;13.05;7.40;;;27.70;53.30;;;;;;6220046;23;20308;-73
2021/07/24 11:46:11;;;;;;;12.25;6.75;;;27.20;54.00;;;;;;6219170;23;20255;-73
2021/07/24 11:48:42;;;;;;;13.52;7.85;;;27.10;54.20;;;;;;6220455;23;20071;-74
2021/07/24 11:51:11;;;;;;;12.90;7.20;;;26.90;55.20;;;;;;6220738;23;20200;-73
2021/07/24 11:53:38;;;;;;;16.43;7.50;;;27.40;53.70;;;;;;6221111;23;20025;-74
2021/07/24 11:56:13;;;;;;;12.25;7.18;;;28.30;51.60;;;;;;6219813;23;20025;-74
2021/07/24 11:58:41;;;;;;;11.10;7.07;;;29.00;49.30;;;;;;6218143;23;20028;-74
2021/07/24 12:01:22;;;;;;;12.60;7.43;;;29.80;47.40;;;;;;6215572;23;20092;-74
2021/07/24 12:04:03;;;;;;;12.80;7.30;;;30.50;46.10;;;;;;6219860;23;20077;-74
2021/07/24 12:06:32;;;;;;;11.48;7.03;;;31.20;44.80;;;;;;6218810;23;20046;-74
2021/07/24 12:09:00;;;;;;;11.52;6.78;;;30.40;45.70;;;;;;6217354;23;20162;-74
2021/07/24 12:11:30;;;;;;;15.73;7.63;;;29.80;47.00;;;;;;6218338;23;20024;-74
2021/07/24 12:14:03;;;;;;;12.15;6.93;;;30.00;46.80;;;;;;6219867;23;20024;-74
2021/07/24 12:16:37;;;;;;;12.00;7.25;;;30.30;46.60;;;;;;6214886;23;20067;-74
2021/07/24 12:19:13;;;;;;;12.07;6.30;;;30.80;45.10;;;;;;6218587;23;20031;-74
2021/07/24 12:21:40;;;;;;;9.05;6.53;;;31.00;44.70;;;;;;6220639;23;20289;-74
2021/07/24 12:24:09;;;;;;;12.55;6.30;;;30.20;45.30;;;;;;6218488;23;20038;-74
2021/07/24 12:26:41;;;;;;;9.90;5.83;;;29.90;45.40;;;;;;6219467;23;20335;-74
2021/07/24 12:29:24;;;;;;;13.63;6.90;;;29.30;47.00;;;;;;6217021;23;20024;-74
2021/07/24 12:31:53;;;;;;;9.85;5.95;;;29.80;46.70;;;;;;6219804;23;20112;-74
2021/07/24 12:34:21;;;;;;;11.10;6.68;;;30.50;45.10;;;;;;6218023;23;20032;-75
2021/07/24 12:36:53;;;;;;;10.98;6.18;;;31.20;43.10;;;;;;6221291;23;20320;-74
2021/07/24 12:39:21;;;;;;;13.90;6.30;;;31.80;41.50;;;;;;6216186;23;20107;-74
2021/07/24 12:42:00;;;;;;;11.50;6.80;;;30.80;44.10;;;;;;6217488;23;20016;-74
2021/07/24 12:44:29;;;;;;;10.65;6.40;;;30.40;45.60;;;;;;6218838;23;20224;-74
2021/07/24 12:47:13;;;;;;;9.73;5.97;;;30.60;45.80;;;;;;6219858;23;20016;-74
2021/07/24 12:49:42;;;;;;;10.02;6.70;;;30.60;45.60;;;;;;6219996;23;20040;-75
2021/07/24 12:52:25;;;;;;;;;;;31.00;44.50;;;;;;6220820;23;20032;-75
2021/07/24 12:55:03;;;;;;;9.30;5.88;;;32.60;41.70;;;;;;6219430;23;19962;-75
2021/07/24 12:57:33;;;;;;;9.77;6.00;;;32.00;43.60;;;;;;6219943;23;20017;-74